Austin (LCRA Redbud)'s Hourly Summary for Tuesday, May 15, 2018
Hour Temp
(f)
RH
(%)
Solar Rad.
(MJ/m2)
Rainfall
(in)
Wind
(mph)
5/15/2018 12:00 AM 79 62 0 0 0.4
5/15/2018 1:00 AM 78 67 0 0 0.4
5/15/2018 2:00 AM 76 72 0 0 0.4
5/15/2018 3:00 AM 75 78 0 0 0.4
5/15/2018 4:00 AM 73 81 0 0 0.4
5/15/2018 5:00 AM 73 81 0 0 0.4
5/15/2018 6:00 AM 72 85 0 0 0.4
5/15/2018 7:00 AM 72 85 0.01 0 0.4
5/15/2018 8:00 AM 74 85 0.26 0 0.4
5/15/2018 9:00 AM 77 75 0.58 0 0.4
5/15/2018 10:00 AM 80 67 1.33 0 0.4
5/15/2018 11:00 AM 83 60 2.09 0 0.4
5/15/2018 12:00 PM 84 55 2.8 0 0.4
5/15/2018 1:00 PM 86 52 2.95 0 0.4
5/15/2018 2:00 PM 87 50 2.9 0 0.4
5/15/2018 3:00 PM 87 49 2.81 0 0.4
5/15/2018 4:00 PM 88 47 2.59 0 0.4
5/15/2018 5:00 PM 88 45 2.07 0 0.4
5/15/2018 6:00 PM 88 44 1.48 0 0.4
5/15/2018 7:00 PM 88 44 0.59 0 0.4
5/15/2018 8:00 PM 86 53 0.06 0.02 0.4
5/15/2018 9:00 PM 80 71 0 0.01 0.4
5/15/2018 10:00 PM 77 71 0 0 0.4
5/15/2018 11:00 PM 77 69 0 0 0.4
Data Summary 80 64 22.52 0.03 0.40